Time;durP1;ratioP1;P1;durP2;ratioP2;P2;SDS_P1;SDS_P2;PMS_P1;PMS_P2;Temp;Humidity;BMP_temperature;BMP_pressure;BME280_temperature;BME280_humidity;BME280_pressure;Samples;Min_cycle;Max_cycle;Signal;HPM_P1;HPM_P2
2021/09/09 00:02:09;;;;;;;0.17;0.17;;;20.10;99.90;;;;;;4992871;28;20069;-79
2021/09/09 00:04:35;;;;;;;0.20;0.20;;;20.00;99.90;;;;;;4991715;28;20026;-79
2021/09/09 00:07:00;;;;;;;0.47;0.32;;;20.00;99.90;;;;;;4992831;28;20041;-75
2021/09/09 00:09:26;;;;;;;0.15;0.15;;;20.00;99.90;;;;;;4993222;28;20030;-75
2021/09/09 00:11:52;;;;;;;0.52;0.52;;;19.90;99.90;;;;;;4993111;28;20019;-75
2021/09/09 00:14:18;;;;;;;0.70;0.30;;;19.90;99.90;;;;;;4992932;28;20142;-75
2021/09/09 00:16:43;;;;;;;1.00;1.00;;;19.90;99.90;;;;;;4992777;28;20030;-75
2021/09/09 00:19:10;;;;;;;0.65;0.63;;;19.90;99.90;;;;;;4992868;28;20037;-75
2021/09/09 00:21:35;;;;;;;1.15;0.52;;;19.90;99.90;;;;;;4993360;28;20141;-75
2021/09/09 00:24:01;;;;;;;1.05;0.73;;;19.90;99.90;;;;;;4992857;28;20030;-75
2021/09/09 00:26:27;;;;;;;0.60;0.43;;;19.90;99.90;;;;;;4992895;28;20129;-75
2021/09/09 00:28:52;;;;;;;0.77;0.50;;;19.90;99.90;;;;;;4992561;28;20121;-75
2021/09/09 00:31:18;;;;;;;1.05;0.80;;;19.90;99.90;;;;;;4991879;28;20026;-76
2021/09/09 00:33:44;;;;;;;6.30;0.70;;;19.90;99.90;;;;;;4992872;28;20084;-75
2021/09/09 00:36:10;;;;;;;0.55;0.30;;;19.80;99.90;;;;;;4991543;28;20018;-75
2021/09/09 00:38:36;;;;;;;6.65;1.00;;;19.80;99.90;;;;;;5000543;28;20393;-75
2021/09/09 00:41:02;;;;;;;0.85;0.85;;;19.80;99.90;;;;;;5010459;28;20026;-75
2021/09/09 00:43:28;;;;;;;4.95;0.52;;;19.70;99.90;;;;;;5012330;28;20054;-75
2021/09/09 00:45:55;;;;;;;1.45;1.02;;;19.70;99.90;;;;;;5012284;28;20026;-75
2021/09/09 00:48:22;;;;;;;1.02;0.52;;;19.70;99.90;;;;;;5012288;28;20038;-75
2021/09/09 00:50:48;;;;;;;0.47;0.47;;;19.70;99.90;;;;;;5002325;28;20018;-75
2021/09/09 00:53:15;;;;;;;0.50;0.47;;;19.60;99.90;;;;;;4991387;28;20105;-75
2021/09/09 00:55:42;;;;;;;0.60;0.40;;;19.60;99.90;;;;;;4996109;28;20026;-75
2021/09/09 00:58:11;;;;;;;0.40;0.20;;;19.50;99.90;;;;;;4995971;28;20054;-75
2021/09/09 01:00:37;;;;;;;0.85;0.70;;;19.50;99.90;;;;;;4995564;28;20085;-75
2021/09/09 01:03:03;;;;;;;0.10;0.10;;;19.50;99.90;;;;;;4996119;28;20038;-75
2021/09/09 01:05:29;;;;;;;1.00;0.28;;;19.50;99.90;;;;;;4994480;28;20037;-75
2021/09/09 01:07:56;;;;;;;0.68;0.68;;;19.40;99.90;;;;;;4995895;28;20023;-75
2021/09/09 01:10:22;;;;;;;0.57;0.52;;;19.40;99.90;;;;;;4994918;28;20029;-76
2021/09/09 01:12:48;;;;;;;1.17;0.65;;;19.40;99.90;;;;;;4995855;28;20030;-75
2021/09/09 01:15:14;;;;;;;0.20;0.20;;;19.30;99.90;;;;;;4995719;28;20026;-75
2021/09/09 01:17:39;;;;;;;0.20;0.20;;;19.30;99.90;;;;;;4995648;28;20034;-75
2021/09/09 01:20:05;;;;;;;0.82;0.70;;;19.20;99.90;;;;;;4994291;28;20033;-75
2021/09/09 01:22:31;;;;;;;1.42;1.15;;;19.20;99.90;;;;;;4998779;28;20033;-75
2021/09/09 01:24:58;;;;;;;0.85;0.52;;;19.20;99.90;;;;;;5015252;28;20030;-76
2021/09/09 01:27:23;;;;;;;0.60;0.40;;;19.20;99.90;;;;;;5013786;28;20711;-75
2021/09/09 01:29:49;;;;;;;0.20;0.20;;;19.20;99.90;;;;;;4999492;28;20105;-75
2021/09/09 01:32:17;;;;;;;0.40;0.40;;;19.20;99.90;;;;;;4995550;28;20032;-75
2021/09/09 01:34:43;;;;;;;0.00;0.00;;;19.30;99.90;;;;;;4995203;28;20030;-75
2021/09/09 01:37:11;;;;;;;1.90;0.73;;;19.40;99.90;;;;;;4994800;28;20023;-75
2021/09/09 01:39:40;;;;;;;0.10;0.05;;;19.40;99.90;;;;;;4995115;28;20026;-75
2021/09/09 01:42:06;;;;;;;0.63;0.60;;;19.40;99.90;;;;;;4993919;28;20502;-75
2021/09/09 01:44:31;;;;;;;1.98;0.60;;;19.50;99.90;;;;;;4994645;28;20073;-75
2021/09/09 01:46:58;;;;;;;1.25;0.80;;;19.50;99.90;;;;;;4975796;28;20034;-75
2021/09/09 01:49:24;;;;;;;0.43;0.40;;;19.50;99.90;;;;;;4975439;28;20034;-75
2021/09/09 01:51:50;;;;;;;1.02;0.40;;;19.50;99.90;;;;;;4974235;28;20134;-75
2021/09/09 01:54:16;;;;;;;0.38;0.38;;;19.50;99.90;;;;;;4975549;28;20490;-75
2021/09/09 01:56:42;;;;;;;0.47;0.47;;;19.40;99.90;;;;;;4975688;28;20023;-75
2021/09/09 01:59:08;;;;;;;0.30;0.30;;;19.50;99.90;;;;;;4975445;28;20035;-75
2021/09/09 02:01:33;;;;;;;0.30;0.30;;;19.40;99.90;;;;;;4993410;28;20381;-75
2021/09/09 02:03:59;;;;;;;0.30;0.30;;;19.50;99.90;;;;;;4994922;28;20102;-76
2021/09/09 02:06:25;;;;;;;0.10;0.10;;;19.50;99.90;;;;;;4994520;28;20031;-75
2021/09/09 02:08:50;;;;;;;0.05;0.05;;;19.50;99.90;;;;;;4994691;28;20034;-75
2021/09/09 02:11:16;;;;;;;0.75;0.60;;;19.60;99.90;;;;;;4994624;28;20027;-75
2021/09/09 02:13:42;;;;;;;0.22;0.22;;;19.60;99.90;;;;;;4994800;28;20018;-75
2021/09/09 02:16:07;;;;;;;0.52;0.52;;;19.60;99.90;;;;;;4994210;28;20437;-75
2021/09/09 02:18:33;;;;;;;0.32;0.32;;;19.70;99.90;;;;;;4994539;28;20433;-75
2021/09/09 02:21:00;;;;;;;4.00;0.65;;;19.70;99.90;;;;;;4994596;28;20398;-75
2021/09/09 02:23:25;;;;;;;0.90;0.52;;;19.70;99.90;;;;;;5003594;28;20532;-75
2021/09/09 02:25:51;;;;;;;3.75;0.90;;;19.70;99.90;;;;;;5012613;28;20112;-75
2021/09/09 02:28:17;;;;;;;0.30;0.30;;;19.70;99.90;;;;;;5011241;28;20053;-75
2021/09/09 02:30:43;;;;;;;0.00;0.00;;;19.80;99.90;;;;;;4993713;28;20022;-75
2021/09/09 02:33:09;;;;;;;0.10;0.10;;;19.80;99.90;;;;;;4994667;28;20034;-75
2021/09/09 02:35:35;;;;;;;1.13;0.55;;;19.80;99.90;;;;;;4994290;28;20105;-75
2021/09/09 02:38:01;;;;;;;0.03;0.00;;;19.90;99.90;;;;;;4994121;28;20038;-75
2021/09/09 02:40:27;;;;;;;0.00;0.00;;;19.90;99.90;;;;;;4992557;28;20533;-75
2021/09/09 02:42:53;;;;;;;0.35;0.35;;;20.00;99.90;;;;;;4991842;28;20438;-75
2021/09/09 02:45:19;;;;;;;0.60;0.55;;;20.00;99.90;;;;;;4994139;28;20022;-74
2021/09/09 02:47:44;;;;;;;0.20;0.20;;;20.00;99.90;;;;;;4993987;28;20034;-74
2021/09/09 02:50:11;;;;;;;0.22;0.22;;;20.00;99.90;;;;;;4992088;28;20026;-74
2021/09/09 02:52:37;;;;;;;0.20;0.10;;;20.00;99.90;;;;;;4993973;28;20125;-74
2021/09/09 02:55:04;;;;;;;0.63;0.10;;;20.10;99.90;;;;;;4993924;28;20485;-74
2021/09/09 02:57:29;;;;;;;0.40;0.40;;;20.10;99.90;;;;;;4993702;28;20037;-74
2021/09/09 02:59:55;;;;;;;1.50;0.45;;;20.10;99.90;;;;;;4993092;28;20030;-74
2021/09/09 03:02:21;;;;;;;0.22;0.10;;;20.10;99.90;;;;;;4993708;28;20045;-74
2021/09/09 03:04:46;;;;;;;1.08;0.22;;;20.10;99.90;;;;;;4992562;28;20030;-74
2021/09/09 03:07:12;;;;;;;0.50;0.50;;;20.10;99.90;;;;;;4993606;28;20030;-74
2021/09/09 03:09:37;;;;;;;0.43;0.38;;;20.10;99.90;;;;;;4993699;28;20026;-74
2021/09/09 03:12:04;;;;;;;0.52;0.52;;;20.10;99.90;;;;;;4993405;28;20035;-74
2021/09/09 03:14:29;;;;;;;0.15;0.15;;;20.10;99.90;;;;;;4992252;28;20023;-75
2021/09/09 03:16:55;;;;;;;0.00;0.00;;;20.10;99.90;;;;;;4992805;28;20026;-74
2021/09/09 03:19:21;;;;;;;2.55;0.20;;;20.10;99.90;;;;;;4993547;28;20030;-74
2021/09/09 03:21:46;;;;;;;0.30;0.30;;;20.10;99.90;;;;;;4993506;28;20030;-74
2021/09/09 03:24:13;;;;;;;0.80;0.10;;;20.10;99.90;;;;;;4993287;28;20022;-74
2021/09/09 03:26:39;;;;;;;0.20;0.20;;;20.10;99.90;;;;;;4993391;28;20057;-74
2021/09/09 03:29:05;;;;;;;0.00;0.00;;;20.00;99.90;;;;;;4993399;28;20022;-75
2021/09/09 03:31:31;;;;;;;0.60;0.52;;;20.00;99.90;;;;;;4992835;28;20026;-74
2021/09/09 03:33:56;;;;;;;0.00;0.00;;;20.00;99.90;;;;;;4993241;28;20030;-74
2021/09/09 03:36:22;;;;;;;3.10;0.20;;;20.00;99.90;;;;;;4993086;28;20101;-74
2021/09/09 03:38:47;;;;;;;0.77;0.40;;;20.00;99.90;;;;;;4993379;28;20556;-74
2021/09/09 03:41:13;;;;;;;0.30;0.30;;;20.10;99.90;;;;;;4992236;28;20558;-74
2021/09/09 03:43:39;;;;;;;0.60;0.43;;;20.00;99.90;;;;;;4992911;28;20061;-74
2021/09/09 03:46:04;;;;;;;0.08;0.08;;;20.00;99.90;;;;;;4991796;28;20035;-74
2021/09/09 03:48:30;;;;;;;0.30;0.30;;;19.90;99.90;;;;;;4992693;28;20035;-75
2021/09/09 03:50:56;;;;;;;0.13;0.13;;;19.80;99.90;;;;;;5004305;28;20104;-74
2021/09/09 03:53:22;;;;;;;0.20;0.20;;;19.80;99.90;;;;;;5011324;28;20501;-74
2021/09/09 03:55:47;;;;;;;0.10;0.10;;;19.80;99.90;;;;;;5012938;28;20049;-74
2021/09/09 03:58:13;;;;;;;0.20;0.20;;;19.80;99.90;;;;;;5012480;28;20105;-74
2021/09/09 04:00:39;;;;;;;0.30;0.30;;;19.80;99.90;;;;;;5000734;28;20110;-74
2021/09/09 04:03:04;;;;;;;2.80;0.88;;;19.70;99.90;;;;;;4993009;28;20105;-74
2021/09/09 04:05:31;;;;;;;0.30;0.30;;;19.70;99.90;;;;;;4993044;28;20042;-74
2021/09/09 04:07:57;;;;;;;0.43;0.13;;;19.70;99.90;;;;;;4993008;28;20113;-74
2021/09/09 04:10:24;;;;;;;0.20;0.20;;;19.70;99.90;;;;;;4991883;28;20030;-74
2021/09/09 04:12:50;;;;;;;0.32;0.32;;;19.70;99.90;;;;;;4992938;28;20022;-74
2021/09/09 04:15:15;;;;;;;0.50;0.50;;;19.70;99.90;;;;;;4991685;28;20085;-75
2021/09/09 04:17:42;;;;;;;0.20;0.10;;;19.70;99.90;;;;;;4992444;28;20050;-74
2021/09/09 04:20:08;;;;;;;0.20;0.20;;;19.70;99.90;;;;;;4992971;28;20500;-74
2021/09/09 04:22:35;;;;;;;0.40;0.40;;;19.70;99.90;;;;;;4991512;28;20030;-75
2021/09/09 04:25:02;;;;;;;1.00;0.52;;;19.70;99.90;;;;;;4992876;28;20105;-75
2021/09/09 04:27:30;;;;;;;0.13;0.13;;;19.70;99.90;;;;;;4991817;28;20512;-74
2021/09/09 04:29:57;;;;;;;0.47;0.20;;;19.70;99.90;;;;;;4995960;28;20033;-74
2021/09/09 04:32:23;;;;;;;1.65;0.90;;;19.70;99.90;;;;;;4995215;28;20397;-74
2021/09/09 04:34:48;;;;;;;1.17;0.60;;;19.70;99.90;;;;;;4996670;28;20019;-74
2021/09/09 04:37:14;;;;;;;0.17;0.17;;;19.70;99.90;;;;;;4996335;28;20026;-74
2021/09/09 04:39:40;;;;;;;0.00;0.00;;;19.70;99.90;;;;;;4996425;28;20498;-74
2021/09/09 04:42:05;;;;;;;0.82;0.22;;;19.70;99.90;;;;;;4995530;28;20379;-74
2021/09/09 04:44:31;;;;;;;0.38;0.38;;;19.70;99.90;;;;;;4995833;28;20061;-74
2021/09/09 04:46:57;;;;;;;0.20;0.20;;;19.80;99.90;;;;;;4995969;28;20026;-74
2021/09/09 04:49:23;;;;;;;0.60;0.30;;;19.70;99.90;;;;;;4994963;28;20034;-74
2021/09/09 04:51:48;;;;;;;1.30;0.60;;;19.80;99.90;;;;;;5014394;28;20018;-74
2021/09/09 04:54:14;;;;;;;0.22;0.22;;;19.80;99.90;;;;;;5015479;28;20109;-74
2021/09/09 04:56:40;;;;;;;0.25;0.22;;;19.70;99.90;;;;;;5015936;28;20018;-74
2021/09/09 04:59:05;;;;;;;1.55;0.17;;;19.70;99.90;;;;;;5015142;28;20034;-74
2021/09/09 05:01:31;;;;;;;0.13;0.13;;;19.80;99.90;;;;;;4999703;28;20081;-74
2021/09/09 05:03:57;;;;;;;0.55;0.55;;;19.80;99.90;;;;;;4996063;28;20035;-74
2021/09/09 05:06:22;;;;;;;0.80;0.30;;;19.70;99.90;;;;;;4995518;28;20040;-74
2021/09/09 05:08:48;;;;;;;0.43;0.38;;;19.70;99.90;;;;;;4995848;28;20033;-74
2021/09/09 05:11:16;;;;;;;0.80;0.30;;;19.80;99.90;;;;;;4995157;28;20030;-74
2021/09/09 05:13:42;;;;;;;0.20;0.20;;;19.70;99.90;;;;;;4995781;28;20046;-74
2021/09/09 05:16:08;;;;;;;0.20;0.20;;;19.70;99.90;;;;;;4993949;28;20065;-74
2021/09/09 05:18:34;;;;;;;0.30;0.30;;;19.70;99.90;;;;;;4995410;28;20084;-74
2021/09/09 05:20:59;;;;;;;0.30;0.30;;;19.70;99.90;;;;;;4995905;28;20084;-74
2021/09/09 05:23:25;;;;;;;0.20;0.20;;;19.80;99.90;;;;;;4994181;28;20018;-74
2021/09/09 05:25:51;;;;;;;0.20;0.20;;;19.80;99.90;;;;;;4995580;28;20031;-74
2021/09/09 05:28:17;;;;;;;1.45;0.10;;;19.80;99.90;;;;;;4995274;28;20502;-74
2021/09/09 05:30:43;;;;;;;0.43;0.32;;;19.80;99.90;;;;;;4994772;28;20104;-74
2021/09/09 05:33:09;;;;;;;0.13;0.10;;;19.80;99.90;;;;;;4995320;28;20605;-74
2021/09/09 05:35:35;;;;;;;0.15;0.15;;;19.80;99.90;;;;;;4995206;28;20031;-75
2021/09/09 05:38:01;;;;;;;0.10;0.10;;;19.80;99.90;;;;;;4995043;28;20019;-74
2021/09/09 05:40:27;;;;;;;0.20;0.20;;;19.80;99.90;;;;;;4994606;28;20030;-74
2021/09/09 05:42:53;;;;;;;0.15;0.15;;;19.80;99.90;;;;;;4993629;28;20078;-75
2021/09/09 05:45:19;;;;;;;1.77;0.90;;;19.80;99.90;;;;;;4995109;28;20033;-74
2021/09/09 05:47:44;;;;;;;0.20;0.20;;;19.90;99.90;;;;;;4994964;28;20524;-75
2021/09/09 05:50:11;;;;;;;0.40;0.28;;;19.80;99.90;;;;;;4994071;28;20104;-77
2021/09/09 05:52:36;;;;;;;0.00;0.00;;;19.90;99.90;;;;;;4994686;28;20190;-77
2021/09/09 05:55:02;;;;;;;0.20;0.20;;;19.90;99.90;;;;;;4993128;28;20129;-76
2021/09/09 05:57:28;;;;;;;0.22;0.22;;;19.90;99.90;;;;;;4991387;28;20101;-77
2021/09/09 05:59:54;;;;;;;0.30;0.30;;;19.90;99.90;;;;;;4983035;28;20038;-77
2021/09/09 06:02:21;;;;;;;0.08;0.05;;;20.00;99.90;;;;;;4994768;28;20037;-77
2021/09/09 06:04:48;;;;;;;0.20;0.20;;;20.00;99.90;;;;;;4993331;28;20037;-77
2021/09/09 06:07:14;;;;;;;1.52;1.00;;;20.10;99.90;;;;;;4987227;28;20035;-77
2021/09/09 06:09:40;;;;;;;0.00;0.00;;;20.10;99.90;;;;;;4974904;28;20556;-77
2021/09/09 06:12:07;;;;;;;1.98;0.22;;;20.10;99.90;;;;;;4992083;28;20023;-77
2021/09/09 06:14:33;;;;;;;0.95;0.47;;;20.20;99.90;;;;;;4993524;28;20026;-77
2021/09/09 06:16:59;;;;;;;0.45;0.45;;;20.20;99.90;;;;;;4988010;28;20023;-77
2021/09/09 06:19:25;;;;;;;0.15;0.10;;;20.30;99.90;;;;;;4991323;28;20041;-77
2021/09/09 06:21:51;;;;;;;0.50;0.50;;;20.30;99.90;;;;;;4992137;28;20029;-78
2021/09/09 06:24:17;;;;;;;0.93;0.82;;;20.30;99.90;;;;;;4992714;28;20046;-77
2021/09/09 06:26:42;;;;;;;0.68;0.30;;;20.40;99.90;;;;;;4989716;28;20041;-78
2021/09/09 06:29:08;;;;;;;0.43;0.43;;;20.40;99.90;;;;;;4992867;28;20068;-77
2021/09/09 06:31:34;;;;;;;0.22;0.22;;;20.50;99.90;;;;;;4989847;28;20031;-77
2021/09/09 06:34:00;;;;;;;0.22;0.22;;;20.50;99.90;;;;;;4989249;28;20034;-77
2021/09/09 06:36:25;;;;;;;0.10;0.10;;;20.60;99.90;;;;;;4988624;28;20026;-78
2021/09/09 06:38:51;;;;;;;5.32;0.40;;;20.60;99.90;;;;;;4990748;28;20030;-77
2021/09/09 06:41:17;;;;;;;3.35;1.30;;;20.60;99.90;;;;;;4990307;28;20037;-77
2021/09/09 06:43:42;;;;;;;4.38;0.65;;;20.60;99.90;;;;;;4989524;28;20129;-77
2021/09/09 06:46:08;;;;;;;0.05;0.05;;;20.50;99.90;;;;;;4990631;28;20027;-77
2021/09/09 06:48:34;;;;;;;0.08;0.08;;;20.50;99.90;;;;;;4992128;28;20073;-78
2021/09/09 06:51:01;;;;;;;0.50;0.50;;;20.50;99.90;;;;;;4984151;28;20081;-80
2021/09/09 06:53:28;;;;;;;0.10;0.10;;;20.60;99.90;;;;;;4988086;28;20030;-80
2021/09/09 06:55:53;;;;;;;0.10;0.10;;;20.70;99.90;;;;;;4981134;28;20035;-79
2021/09/09 06:58:19;;;;;;;0.25;0.25;;;20.90;99.90;;;;;;4983372;28;20041;-82
2021/09/09 07:00:45;;;;;;;0.77;0.25;;;21.10;99.90;;;;;;4987473;28;20041;-80
2021/09/09 07:03:10;;;;;;;0.20;0.20;;;21.30;99.90;;;;;;4990841;28;20105;-78
2021/09/09 07:05:36;;;;;;;0.00;0.00;;;21.30;99.90;;;;;;4990538;28;20031;-78
2021/09/09 07:08:02;;;;;;;4.13;1.15;;;21.40;99.90;;;;;;4977270;28;20070;-79
2021/09/09 07:10:28;;;;;;;1.25;0.93;;;21.30;99.90;;;;;;4990006;28;20042;-80
2021/09/09 07:12:54;;;;;;;1.27;0.35;;;21.30;99.90;;;;;;4990838;28;20378;-80
2021/09/09 07:15:19;;;;;;;5.00;0.32;;;21.30;99.90;;;;;;4991245;28;20482;-80
2021/09/09 07:17:45;;;;;;;0.55;0.40;;;21.30;99.90;;;;;;4991447;28;20031;-80
2021/09/09 07:20:11;;;;;;;1.17;0.73;;;21.40;99.90;;;;;;4990302;28;20034;-82
2021/09/09 07:22:37;;;;;;;0.00;0.00;;;21.50;99.90;;;;;;4992724;28;20829;-81
2021/09/09 07:25:04;;;;;;;0.20;0.20;;;21.60;99.90;;;;;;4991215;28;20062;-79
2021/09/09 07:27:29;;;;;;;1.42;0.45;;;21.70;99.90;;;;;;4989877;28;20019;-80
2021/09/09 07:29:55;;;;;;;0.30;0.30;;;21.70;99.90;;;;;;4988898;28;20543;-77
2021/09/09 07:32:23;;;;;;;2.05;1.45;;;21.90;99.90;;;;;;4989715;28;20034;-80
2021/09/09 07:34:49;;;;;;;0.50;0.50;;;21.90;99.90;;;;;;4990543;28;20133;-80
2021/09/09 07:37:14;;;;;;;10.90;0.88;;;22.00;99.90;;;;;;4990803;28;20026;-83
2021/09/09 07:39:40;;;;;;;0.15;0.15;;;22.10;99.90;;;;;;4989827;28;20061;-83
2021/09/09 07:42:06;;;;;;;0.38;0.38;;;22.00;99.90;;;;;;4990380;28;20031;-80
2021/09/09 07:44:31;;;;;;;0.20;0.15;;;22.00;99.90;;;;;;4985996;28;20053;-79
2021/09/09 07:46:57;;;;;;;0.28;0.15;;;22.00;99.90;;;;;;4990241;28;20045;-79
2021/09/09 07:49:23;;;;;;;0.52;0.38;;;22.00;99.90;;;;;;4989226;28;20204;-79
2021/09/09 07:51:49;;;;;;;0.30;0.30;;;22.10;99.90;;;;;;4990427;28;20027;-80
2021/09/09 07:54:15;;;;;;;0.00;0.00;;;22.20;99.90;;;;;;4989611;28;20485;-81
2021/09/09 07:56:40;;;;;;;2.17;0.28;;;22.10;99.90;;;;;;4990873;28;20022;-80
2021/09/09 07:59:06;;;;;;;0.57;0.35;;;22.10;99.90;;;;;;4988511;28;20045;-81
2021/09/09 08:01:32;;;;;;;0.13;0.10;;;22.30;99.90;;;;;;4988826;28;20037;-80
2021/09/09 08:03:57;;;;;;;0.20;0.20;;;22.50;99.90;;;;;;4994794;28;20034;-79
2021/09/09 08:06:23;;;;;;;1.23;0.32;;;22.90;99.90;;;;;;4990345;28;20035;-81
2021/09/09 08:08:49;;;;;;;0.20;0.20;;;22.90;99.90;;;;;;4992345;28;20038;-79
2021/09/09 08:11:14;;;;;;;0.10;0.08;;;22.90;99.90;;;;;;4993343;28;20026;-80
2021/09/09 08:13:40;;;;;;;0.25;0.25;;;22.80;99.90;;;;;;4993503;28;20089;-79
2021/09/09 08:16:06;;;;;;;0.45;0.45;;;22.70;99.90;;;;;;5004521;28;20026;-78
2021/09/09 08:18:32;;;;;;;0.25;0.25;;;22.80;99.90;;;;;;4992547;28;20041;-82
2021/09/09 08:20:58;;;;;;;0.30;0.30;;;22.70;99.90;;;;;;4990445;28;20027;-79
2021/09/09 08:23:24;;;;;;;2.17;1.38;;;22.60;99.90;;;;;;4989502;28;20037;-79
2021/09/09 08:25:51;;;;;;;4.32;0.75;;;22.50;99.90;;;;;;4991530;28;20494;-79
2021/09/09 08:28:17;;;;;;;0.20;0.20;;;22.60;99.90;;;;;;4990291;28;20042;-78
2021/09/09 08:30:44;;;;;;;1.55;0.50;;;22.90;99.90;;;;;;4984873;28;20025;-79
2021/09/09 08:33:10;;;;;;;0.30;0.30;;;23.00;99.90;;;;;;4991624;28;20023;-80
2021/09/09 08:35:37;;;;;;;0.20;0.20;;;23.30;99.90;;;;;;5000284;28;20034;-81
2021/09/09 08:38:03;;;;;;;1.65;0.50;;;23.40;99.90;;;;;;4989877;28;20064;-87
2021/09/09 08:40:30;;;;;;;0.10;0.10;;;23.50;99.90;;;;;;4990188;28;20473;-85
2021/09/09 08:42:56;;;;;;;0.65;0.60;;;24.80;99.90;;;;;;4994169;28;20078;-86
2021/09/09 08:45:21;;;;;;;0.38;0.38;;;25.90;99.90;;;;;;4984697;28;20061;-88
2021/09/09 08:47:49;;;;;;;0.52;0.30;;;25.60;99.90;;;;;;4988125;28;20034;-86
2021/09/09 08:50:16;;;;;;;0.30;0.28;;;25.20;99.90;;;;;;4992007;28;20073;-86
2021/09/09 08:52:42;;;;;;;0.63;0.55;;;24.70;99.90;;;;;;4981515;28;20409;-84
2021/09/09 08:55:08;;;;;;;0.98;0.45;;;24.30;99.90;;;;;;4986370;28;20037;-84
2021/09/09 08:57:33;;;;;;;0.10;0.10;;;24.10;99.90;;;;;;4978320;28;20038;-83
2021/09/09 08:59:59;;;;;;;0.10;0.10;;;24.30;99.90;;;;;;4989057;28;20434;-83
2021/09/09 09:02:25;;;;;;;1.13;0.95;;;24.20;99.90;;;;;;4989058;28;20696;-83
2021/09/09 09:05:08;;;;;;;0.43;0.43;;;24.70;99.90;;;;;;4971842;28;20090;-85
2021/09/09 09:07:35;;;;;;;1.48;0.68;;;25.50;99.90;;;;;;4980021;28;20046;-84
2021/09/09 09:10:04;;;;;;;0.40;0.40;;;26.50;99.90;;;;;;4990603;28;20034;-84
2021/09/09 09:12:45;;;;;;;0.28;0.28;;;27.50;99.90;;;;;;4985736;28;20053;-85
2021/09/09 09:15:17;;;;;;;2.25;1.00;;;27.20;99.90;;;;;;4984225;28;20032;-84
2021/09/09 09:18:10;;;;;;;0.10;0.10;;;26.10;99.90;;;;;;4987499;28;20026;-80
2021/09/09 09:20:36;;;;;;;1.60;0.75;;;25.20;99.90;;;;;;4975922;28;20078;-84
2021/09/09 09:23:10;;;;;;;0.70;0.60;;;24.60;99.90;;;;;;4985511;28;20081;-83
2021/09/09 09:25:46;;;;;;;0.55;0.30;;;24.30;99.90;;;;;;4977376;28;20027;-80
2021/09/09 09:28:12;;;;;;;1.67;0.45;;;24.40;99.90;;;;;;4986751;28;20520;-80
2021/09/09 09:30:38;;;;;;;0.20;0.20;;;24.80;99.90;;;;;;4984387;28;20030;-82
2021/09/09 09:33:03;;;;;;;0.60;0.60;;;24.80;99.90;;;;;;4988290;28;20030;-84
2021/09/09 09:35:30;;;;;;;0.43;0.38;;;25.60;99.90;;;;;;4981118;28;20030;-79
2021/09/09 09:38:08;;;;;;;0.30;0.30;;;26.40;99.90;;;;;;4984698;28;20088;-80
2021/09/09 09:40:43;;;;;;;0.20;0.20;;;26.00;99.90;;;;;;4989198;28;20038;-79
2021/09/09 09:43:11;;;;;;;0.45;0.38;;;25.10;99.90;;;;;;4984900;28;20042;-78
2021/09/09 09:45:48;;;;;;;0.30;0.30;;;25.00;99.90;;;;;;4986806;28;20077;-79
2021/09/09 09:48:31;;;;;;;0.20;0.20;;;24.20;99.90;;;;;;4987888;28;20045;-78
2021/09/09 09:50:57;;;;;;;5.72;0.98;;;23.60;99.90;;;;;;4985124;28;20022;-78
2021/09/09 09:53:22;;;;;;;1.25;0.80;;;23.30;99.90;;;;;;4979180;28;20387;-81
2021/09/09 09:55:50;;;;;;;0.10;0.10;;;23.20;99.90;;;;;;4991263;28;20026;-77
2021/09/09 09:58:16;;;;;;;1.48;0.50;;;23.20;99.90;;;;;;4981000;28;20038;-77
2021/09/09 10:00:42;;;;;;;0.45;0.30;;;23.10;99.90;;;;;;4989680;28;20105;-77
2021/09/09 10:03:08;;;;;;;1.75;0.85;;;23.20;99.90;;;;;;4983302;28;20562;-78
2021/09/09 10:05:37;;;;;;;1.88;0.22;;;24.20;99.90;;;;;;4985692;28;20117;-80
2021/09/09 10:08:05;;;;;;;0.43;0.38;;;24.00;99.90;;;;;;4978733;28;20030;-78
2021/09/09 10:10:31;;;;;;;3.90;0.47;;;23.50;99.90;;;;;;4989222;28;20096;-77
2021/09/09 10:12:57;;;;;;;5.05;0.35;;;23.30;99.90;;;;;;4986009;28;20022;-79
2021/09/09 10:15:23;;;;;;;1.05;0.95;;;23.40;99.90;;;;;;4985421;28;20022;-77
2021/09/09 10:17:50;;;;;;;0.08;0.08;;;23.50;99.90;;;;;;4983937;28;20142;-82
2021/09/09 10:20:39;;;;;;;0.75;0.45;;;23.70;99.90;;;;;;4980399;28;20050;-78
2021/09/09 10:23:08;;;;;;;0.50;0.50;;;24.10;99.90;;;;;;4987625;28;20034;-77
2021/09/09 10:25:43;;;;;;;0.28;0.28;;;24.10;99.90;;;;;;4984279;28;20034;-79
2021/09/09 10:31:05;;;;;;;0.20;0.20;;;24.40;99.90;;;;;;4979403;28;20027;-80
2021/09/09 10:33:32;;;;;;;3.77;1.73;;;24.40;99.90;;;;;;4982812;28;20057;-78
2021/09/09 10:35:59;;;;;;;0.13;0.13;;;24.10;99.90;;;;;;4983896;28;20034;-81
2021/09/09 10:38:33;;;;;;;1.23;0.50;;;24.30;99.90;;;;;;4985988;28;20041;-78
2021/09/09 10:41:03;;;;;;;0.60;0.50;;;24.20;99.90;;;;;;4986275;28;20030;-80
2021/09/09 10:43:29;;;;;;;0.50;0.50;;;23.90;99.90;;;;;;4987085;28;20038;-79
2021/09/09 10:46:03;;;;;;;2.65;0.77;;;24.00;99.90;;;;;;4980090;28;20046;-80
2021/09/09 10:48:30;;;;;;;1.45;1.00;;;23.80;99.90;;;;;;4987876;28;20479;-78
2021/09/09 10:51:03;;;;;;;0.20;0.20;;;24.40;99.90;;;;;;4981083;28;20154;-77
2021/09/09 10:53:39;;;;;;;0.35;0.35;;;24.60;99.90;;;;;;4983466;28;20031;-77
2021/09/09 10:56:12;;;;;;;1.02;0.20;;;24.60;99.90;;;;;;4984334;28;20027;-78
2021/09/09 10:58:40;;;;;;;1.08;0.85;;;24.30;99.90;;;;;;4988105;28;20033;-81
2021/09/09 11:01:06;;;;;;;1.38;0.75;;;24.30;99.90;;;;;;4990249;28;20053;-77
2021/09/09 11:03:38;;;;;;;0.20;0.20;;;24.20;99.90;;;;;;4986864;28;20026;-79
2021/09/09 11:06:15;;;;;;;1.70;0.38;;;24.10;99.90;;;;;;4995006;28;20416;-77
2021/09/09 11:08:46;;;;;;;0.47;0.40;;;24.20;99.90;;;;;;4992946;28;20035;-81
2021/09/09 11:11:29;;;;;;;0.52;0.35;;;24.30;99.90;;;;;;4987008;28;20038;-78
2021/09/09 11:14:00;;;;;;;1.33;0.90;;;24.60;99.90;;;;;;4996816;28;20432;-81
2021/09/09 11:16:27;;;;;;;0.20;0.20;;;24.30;99.90;;;;;;4986189;28;20471;-78
2021/09/09 11:18:53;;;;;;;0.90;0.85;;;24.60;99.90;;;;;;4996669;28;20065;-79
2021/09/09 11:21:31;;;;;;;0.45;0.45;;;24.50;99.90;;;;;;4991654;28;20057;-78
2021/09/09 11:24:17;;;;;;;0.80;0.40;;;24.50;99.90;;;;;;4996858;28;20033;-79
2021/09/09 11:26:46;;;;;;;0.45;0.45;;;24.40;99.90;;;;;;4991512;28;20038;-77
2021/09/09 11:29:12;;;;;;;1.02;0.25;;;24.50;99.90;;;;;;4979612;28;20030;-77
2021/09/09 11:31:51;;;;;;;3.70;0.90;;;24.40;99.90;;;;;;4985652;28;20059;-77
2021/09/09 11:34:31;;;;;;;4.03;1.10;;;23.70;99.90;;;;;;4996320;28;20065;-81
2021/09/09 11:37:00;;;;;;;0.55;0.55;;;23.50;99.90;;;;;;4984279;28;20022;-83
2021/09/09 11:39:33;;;;;;;0.20;0.20;;;23.40;99.90;;;;;;4984823;28;20084;-77
2021/09/09 11:41:59;;;;;;;0.77;0.52;;;23.30;99.90;;;;;;4985265;28;20034;-78
2021/09/09 11:44:37;;;;;;;0.38;0.38;;;24.10;99.90;;;;;;4985029;28;20050;-79
2021/09/09 11:47:18;;;;;;;0.38;0.35;;;23.90;99.90;;;;;;4978380;28;20106;-80
2021/09/09 11:49:44;;;;;;;0.30;0.28;;;23.80;99.90;;;;;;4986249;28;20050;-83
2021/09/09 11:52:10;;;;;;;2.20;0.70;;;23.90;99.90;;;;;;4986040;28;20032;-79
2021/09/09 11:54:38;;;;;;;0.30;0.25;;;23.80;99.90;;;;;;4981919;28;20030;-82
2021/09/09 11:57:12;;;;;;;1.35;0.75;;;24.00;99.90;;;;;;4983219;28;20396;-82
2021/09/09 11:59:48;;;;;;;0.30;0.30;;;23.80;99.90;;;;;;4978758;28;20046;-79
2021/09/09 12:02:35;;;;;;;0.40;0.30;;;24.00;99.90;;;;;;4987207;28;20040;-77
2021/09/09 12:05:07;;;;;;;1.42;0.40;;;24.30;99.90;;;;;;4981041;28;20042;-78
2021/09/09 12:07:34;;;;;;;0.30;0.30;;;24.60;99.90;;;;;;4976137;28;20037;-81
2021/09/09 12:10:05;;;;;;;0.32;0.32;;;24.20;99.90;;;;;;4983711;28;20035;-78
2021/09/09 12:12:34;;;;;;;0.30;0.30;;;23.90;99.90;;;;;;4981041;28;20023;-78
2021/09/09 12:15:11;;;;;;;3.65;0.70;;;23.80;99.90;;;;;;4983701;28;20098;-77
2021/09/09 12:17:40;;;;;;;0.40;0.40;;;23.80;99.90;;;;;;4979280;28;20061;-79
2021/09/09 12:20:12;;;;;;;0.38;0.32;;;24.00;99.90;;;;;;4983579;28;20034;-80
2021/09/09 12:22:57;;;;;;;0.90;0.63;;;23.80;99.90;;;;;;4984450;28;20034;-77
2021/09/09 12:25:26;;;;;;;1.10;0.52;;;24.30;99.90;;;;;;4985539;28;20458;-78
2021/09/09 12:28:07;;;;;;;0.65;0.65;;;24.50;99.90;;;;;;4994415;28;20087;-77
2021/09/09 12:30:36;;;;;;;1.40;1.25;;;24.60;99.90;;;;;;4979992;28;20061;-77
2021/09/09 12:33:30;;;;;;;0.65;0.45;;;24.80;99.90;;;;;;4989778;28;20034;-78
2021/09/09 12:36:15;;;;;;;0.85;0.52;;;24.80;99.90;;;;;;4981229;28;20054;-83
2021/09/09 12:38:43;;;;;;;0.80;0.32;;;24.00;99.90;;;;;;4980062;28;20097;-80
2021/09/09 12:41:29;;;;;;;2.38;0.70;;;24.10;99.90;;;;;;4982118;28;20026;-77
2021/09/09 12:44:03;;;;;;;1.42;0.73;;;24.20;99.90;;;;;;4984436;28;20124;-81
2021/09/09 12:46:34;;;;;;;0.57;0.28;;;24.50;99.90;;;;;;4979522;28;20050;-82
2021/09/09 12:49:12;;;;;;;0.25;0.17;;;24.20;99.90;;;;;;4982777;28;20033;-78
2021/09/09 12:51:45;;;;;;;0.30;0.30;;;24.00;99.90;;;;;;4987278;28;20034;-77
2021/09/09 12:54:13;;;;;;;1.42;0.63;;;24.20;99.90;;;;;;4985457;28;20489;-78